createdAt,value
2023-01-29T00:01:06.582Z,-5.00
2023-01-29T00:07:08.602Z,-5.00
2023-01-29T00:13:10.361Z,-5.00
2023-01-29T00:19:12.120Z,-5.10
2023-01-29T00:25:13.849Z,-5.00
2023-01-29T00:31:18.735Z,-5.00
2023-01-29T00:37:20.547Z,-4.70
2023-01-29T00:43:40.954Z,-4.50
2023-01-29T00:49:42.665Z,-4.50
2023-01-29T00:55:45.035Z,-4.50
2023-01-29T01:02:05.408Z,-4.60
2023-01-29T01:08:27.134Z,-4.60
2023-01-29T01:14:28.945Z,-4.80
2023-01-29T01:20:32.923Z,-4.80
2023-01-29T01:26:35.095Z,-4.80
2023-01-29T01:32:36.961Z,-4.80
2023-01-29T01:38:45.239Z,-4.80
2023-01-29T01:45:04.220Z,-4.90
2023-01-29T01:51:13.513Z,-5.10
2023-01-29T01:57:24.800Z,-5.10
2023-01-29T02:03:47.174Z,-5.10
2023-01-29T02:09:53.229Z,-5.10
2023-01-29T02:15:56.336Z,-5.00
2023-01-29T02:22:10.633Z,-5.10
2023-01-29T02:28:48.828Z,-5.00
2023-01-29T02:35:31.974Z,-5.10
2023-01-29T02:41:45.841Z,-5.20
2023-01-29T02:47:59.131Z,-5.10
2023-01-29T02:54:27.219Z,-5.10
2023-01-29T03:00:41.342Z,-5.10
2023-01-29T03:06:49.350Z,-5.10
2023-01-29T03:13:06.316Z,-5.20
2023-01-29T03:19:14.108Z,-5.20
2023-01-29T03:25:36.316Z,-5.20
2023-01-29T03:31:56.825Z,-5.20
2023-01-29T03:37:59.403Z,-5.20
2023-01-29T03:44:20.291Z,-5.10
2023-01-29T03:50:47.082Z,-4.90
2023-01-29T03:57:17.764Z,-4.70
2023-01-29T04:03:33.257Z,-4.30
2023-01-29T04:09:48.078Z,-4.00
2023-01-29T04:15:55.980Z,-3.70
2023-01-29T04:22:27.964Z,-3.40
2023-01-29T04:28:50.283Z,-3.20
2023-01-29T04:35:11.134Z,-3.00
2023-01-29T04:41:32.450Z,-2.70
2023-01-29T04:47:45.687Z,-2.50
2023-01-29T04:54:10.925Z,-2.40
2023-01-29T05:00:32.226Z,-2.30
2023-01-29T05:06:35.736Z,-2.10
2023-01-29T05:12:38.449Z,-2.00
2023-01-29T05:18:41.059Z,-1.90
2023-01-29T05:24:42.893Z,-1.80
2023-01-29T05:30:50.159Z,-1.80
2023-01-29T05:36:51.966Z,-1.80
2023-01-29T05:42:53.771Z,-1.80
2023-01-29T05:48:55.530Z,-1.70
2023-01-29T05:54:57.366Z,-1.70
2023-01-29T06:01:12.126Z,-1.60
2023-01-29T06:07:13.935Z,-1.60
2023-01-29T06:13:15.673Z,-1.50
2023-01-29T06:19:18.202Z,-1.40
2023-01-29T06:25:19.948Z,-1.40
2023-01-29T06:31:37.432Z,-1.40
2023-01-29T06:37:39.908Z,-1.40
2023-01-29T06:43:44.679Z,-1.40
2023-01-29T06:49:46.375Z,-1.30
2023-01-29T06:55:52.855Z,-1.20
2023-01-29T07:01:54.770Z,-1.20
2023-01-29T07:07:57.175Z,-1.10
2023-01-29T07:13:58.897Z,-1.10
2023-01-29T07:20:00.733Z,-1.10
2023-01-29T07:26:04.794Z,-1.00
2023-01-29T07:32:07.912Z,-0.90
2023-01-29T07:38:11.283Z,-0.90
2023-01-29T07:44:13.112Z,-0.80
2023-01-29T07:50:15.238Z,-0.80
2023-01-29T07:56:17.332Z,-0.70
2023-01-29T08:02:19.243Z,-0.70
2023-01-29T08:08:21.029Z,-0.60
2023-01-29T08:14:23.606Z,-0.60
2023-01-29T08:20:25.805Z,-0.50
2023-01-29T08:26:27.648Z,-0.30
2023-01-29T08:32:29.383Z,-0.30
2023-01-29T08:38:31.155Z,-0.30
2023-01-29T08:44:32.878Z,-0.20
2023-01-29T08:50:35.541Z,0.00
2023-01-29T08:56:37.298Z,0.20
2023-01-29T09:02:39.058Z,0.30
2023-01-29T09:08:41.532Z,0.30
2023-01-29T09:14:43.352Z,0.30
2023-01-29T09:20:45.507Z,0.50
2023-01-29T09:26:47.217Z,0.60
2023-01-29T09:32:53.542Z,0.60
2023-01-29T09:38:55.823Z,0.70
2023-01-29T09:45:24.731Z,1.00
2023-01-29T09:51:32.075Z,1.10
2023-01-29T09:57:49.066Z,1.40
2023-01-29T10:04:06.556Z,1.50
2023-01-29T10:10:08.292Z,1.80
2023-01-29T10:16:28.510Z,2.00
2023-01-29T10:22:45.555Z,2.00
2023-01-29T10:28:52.087Z,2.10
2023-01-29T10:35:02.636Z,2.00
2023-01-29T10:41:43.159Z,1.70
2023-01-29T10:48:21.265Z,1.60
2023-01-29T10:54:41.406Z,1.70
2023-01-29T11:00:43.224Z,2.10
2023-01-29T11:06:45.254Z,2.20
2023-01-29T11:12:47.054Z,2.20
2023-01-29T11:18:53.683Z,2.00
2023-01-29T11:25:18.515Z,2.10
2023-01-29T11:31:38.627Z,1.60
2023-01-29T11:37:45.536Z,1.70
2023-01-29T11:43:47.433Z,1.80
2023-01-29T11:49:55.038Z,1.80
2023-01-29T11:55:56.906Z,1.90
2023-01-29T12:02:26.670Z,2.00
2023-01-29T12:08:37.021Z,1.80
2023-01-29T12:14:39.195Z,1.90
2023-01-29T12:20:56.106Z,1.80
2023-01-29T12:27:06.262Z,1.70
2023-01-29T12:33:36.699Z,1.70
2023-01-29T12:39:38.445Z,1.60
2023-01-29T12:45:42.904Z,1.70
2023-01-29T12:51:56.747Z,1.60
2023-01-29T12:58:12.667Z,1.40
2023-01-29T13:04:32.255Z,1.30
2023-01-29T13:10:38.559Z,1.60
2023-01-29T13:16:45.308Z,1.80
2023-01-29T13:22:48.545Z,1.90
2023-01-29T13:28:51.624Z,1.80
2023-01-29T13:34:57.164Z,1.70
2023-01-29T13:41:05.143Z,1.70
2023-01-29T13:47:20.252Z,1.50
2023-01-29T13:53:28.649Z,1.50
2023-01-29T13:59:55.172Z,1.50
2023-01-29T14:06:00.175Z,1.50
2023-01-29T14:12:02.937Z,1.50
2023-01-29T14:18:18.768Z,1.50
2023-01-29T14:24:24.691Z,1.60
2023-01-29T14:30:30.493Z,1.60
2023-01-29T14:36:41.959Z,1.60
2023-01-29T14:43:20.091Z,1.50
2023-01-29T14:49:51.208Z,1.40
2023-01-29T14:55:59.284Z,1.30
2023-01-29T15:02:15.484Z,1.40
2023-01-29T15:08:30.216Z,1.30
2023-01-29T15:14:40.676Z,1.20
2023-01-29T15:20:44.167Z,1.10
2023-01-29T15:26:45.968Z,1.20
2023-01-29T15:32:48.817Z,1.20
2023-01-29T15:39:14.168Z,1.20
2023-01-29T15:45:25.750Z,1.20
2023-01-29T15:51:28.847Z,1.30
2023-01-29T15:57:37.377Z,1.30
2023-01-29T16:03:39.502Z,1.20
2023-01-29T16:09:42.452Z,1.20
2023-01-29T16:15:59.147Z,1.10
2023-01-29T16:22:03.841Z,1.00
2023-01-29T16:28:07.593Z,1.00
2023-01-29T16:34:28.922Z,1.00
2023-01-29T16:40:33.879Z,1.00
2023-01-29T16:46:45.982Z,1.10
2023-01-29T16:53:01.072Z,1.10
2023-01-29T16:59:05.086Z,1.10
2023-01-29T17:05:10.006Z,1.10
2023-01-29T17:11:22.891Z,1.00
2023-01-29T17:17:31.973Z,1.00
2023-01-29T17:23:33.693Z,0.90
2023-01-29T17:29:35.454Z,0.90
2023-01-29T17:35:37.146Z,0.90
2023-01-29T17:41:39.623Z,0.90
2023-01-29T17:47:41.379Z,0.90
2023-01-29T17:53:46.180Z,0.90
2023-01-29T17:59:48.462Z,0.90
2023-01-29T18:05:50.419Z,0.90
2023-01-29T18:11:53.391Z,0.80
2023-01-29T18:17:55.264Z,0.80
2023-01-29T18:23:57.012Z,0.80
2023-01-29T18:29:58.735Z,0.70
2023-01-29T18:36:00.763Z,0.70
2023-01-29T18:42:02.493Z,0.70
2023-01-29T18:48:05.081Z,0.60
2023-01-29T18:54:06.933Z,0.60
2023-01-29T19:00:09.526Z,0.60
2023-01-29T19:06:11.987Z,0.60
2023-01-29T19:12:16.786Z,0.60
2023-01-29T19:18:23.430Z,0.60
2023-01-29T19:24:27.691Z,0.60
2023-01-29T19:30:33.046Z,0.60
2023-01-29T19:36:36.296Z,0.60
2023-01-29T19:42:38.413Z,0.60
2023-01-29T19:48:40.633Z,0.50
2023-01-29T19:54:48.866Z,0.60
2023-01-29T20:00:59.594Z,0.60
2023-01-29T20:07:01.700Z,0.60
2023-01-29T20:13:07.864Z,0.60
2023-01-29T20:19:14.334Z,0.60
2023-01-29T20:25:20.165Z,0.60
2023-01-29T20:31:22.016Z,0.70
2023-01-29T20:37:24.131Z,0.70
2023-01-29T20:43:26.011Z,0.70
2023-01-29T20:49:28.558Z,0.70
2023-01-29T20:55:31.506Z,0.70
2023-01-29T21:01:33.292Z,0.80
2023-01-29T21:07:36.094Z,0.90
2023-01-29T21:13:38.143Z,0.80
2023-01-29T21:19:53.842Z,0.80
2023-01-29T21:26:08.725Z,0.80
2023-01-29T21:32:11.634Z,0.70
2023-01-29T21:38:13.379Z,0.70
2023-01-29T21:44:15.637Z,0.60
2023-01-29T21:50:17.769Z,0.60
2023-01-29T21:56:19.795Z,0.60
2023-01-29T22:02:22.782Z,0.70
2023-01-29T22:08:24.860Z,0.70
2023-01-29T22:14:26.629Z,0.70
2023-01-29T22:20:30.679Z,0.70
2023-01-29T22:26:32.574Z,0.60
2023-01-29T22:32:34.698Z,0.60
2023-01-29T22:38:36.531Z,0.60
2023-01-29T22:44:38.267Z,0.60
2023-01-29T22:50:40.390Z,0.60
2023-01-29T22:56:42.248Z,0.60
2023-01-29T23:02:45.963Z,0.70
2023-01-29T23:08:48.706Z,0.70
2023-01-29T23:14:50.446Z,0.80
2023-01-29T23:20:57.496Z,0.70
2023-01-29T23:27:14.350Z,0.80
2023-01-29T23:33:16.061Z,0.80
2023-01-29T23:39:17.869Z,0.80
2023-01-29T23:45:19.598Z,0.80
2023-01-29T23:51:21.342Z,0.80
2023-01-29T23:57:23.145Z,0.80
